createdAt,value
2018-06-11T00:01:43.983Z,14.60
2018-06-11T00:04:12.898Z,14.50
2018-06-11T00:06:41.781Z,14.50
2018-06-11T00:09:10.614Z,14.50
2018-06-11T00:11:39.539Z,14.50
2018-06-11T00:14:08.460Z,14.50
2018-06-11T00:16:37.302Z,14.40
2018-06-11T00:19:06.278Z,14.30
2018-06-11T00:21:35.177Z,14.40
2018-06-11T00:24:04.172Z,14.40
2018-06-11T00:26:33.069Z,14.40
2018-06-11T00:29:01.987Z,14.30
2018-06-11T00:31:30.868Z,14.30
2018-06-11T00:33:59.757Z,14.40
2018-06-11T00:36:28.695Z,14.30
2018-06-11T00:38:57.565Z,14.30
2018-06-11T00:41:26.493Z,14.30
2018-06-11T00:43:56.171Z,14.30
2018-06-11T00:46:25.051Z,14.20
2018-06-11T00:48:53.978Z,14.20
2018-06-11T00:51:22.892Z,14.20
2018-06-11T00:53:51.925Z,14.20
2018-06-11T00:56:21.837Z,14.20
2018-06-11T00:58:50.742Z,14.20
2018-06-11T01:03:48.189Z,14.10
2018-06-11T01:06:17.146Z,14.20
2018-06-11T01:08:46.570Z,14.10
2018-06-11T01:11:15.480Z,14.00
2018-06-11T01:13:44.966Z,14.00
2018-06-11T01:16:13.922Z,14.00
2018-06-11T01:18:42.760Z,14.00
2018-06-11T01:21:11.643Z,14.00
2018-06-11T01:23:40.539Z,14.00
2018-06-11T01:26:09.403Z,14.00
2018-06-11T01:28:38.302Z,14.00
2018-06-11T01:31:07.153Z,13.90
2018-06-11T01:33:36.096Z,13.80
2018-06-11T01:38:33.868Z,13.90
2018-06-11T01:41:02.782Z,13.80
2018-06-11T01:43:31.674Z,13.70
2018-06-11T01:48:29.118Z,13.70
2018-06-11T01:50:58.005Z,13.70
2018-06-11T01:53:26.917Z,13.70
2018-06-11T01:55:56.076Z,13.60
2018-06-11T01:58:24.932Z,13.60
2018-06-11T02:00:53.971Z,13.60
2018-06-11T02:03:22.902Z,13.60
2018-06-11T02:05:51.827Z,13.60
2018-06-11T02:08:20.853Z,13.50
2018-06-11T02:10:50.268Z,13.50
2018-06-11T02:13:19.150Z,13.50
2018-06-11T02:15:47.997Z,13.50
2018-06-11T02:18:16.862Z,13.50
2018-06-11T02:20:45.766Z,13.50
2018-06-11T02:23:14.635Z,13.50
2018-06-11T02:25:43.553Z,13.40
2018-06-11T02:30:41.000Z,13.50
2018-06-11T02:33:09.964Z,13.60
2018-06-11T02:35:38.850Z,13.70
2018-06-11T02:38:07.731Z,13.70
2018-06-11T02:40:36.861Z,13.70
2018-06-11T02:43:05.803Z,13.80
2018-06-11T02:45:34.760Z,13.90
2018-06-11T02:48:03.825Z,13.90
2018-06-11T02:50:32.718Z,13.90
2018-06-11T02:53:01.672Z,13.90
2018-06-11T02:55:30.598Z,13.90
2018-06-11T02:57:59.517Z,14.00
2018-06-11T03:00:28.412Z,13.90
2018-06-11T03:02:57.311Z,13.90
2018-06-11T03:05:26.196Z,13.80
2018-06-11T03:07:55.113Z,13.80
2018-06-11T03:10:24.029Z,13.70
2018-06-11T03:12:52.992Z,13.70
2018-06-11T03:15:22.137Z,13.80
2018-06-11T03:17:51.199Z,13.60
2018-06-11T03:20:20.930Z,13.60
2018-06-11T03:22:49.793Z,13.60
2018-06-11T03:25:18.798Z,13.60
2018-06-11T03:27:49.316Z,13.50
2018-06-11T03:30:18.158Z,13.50
2018-06-11T03:32:47.073Z,13.50
2018-06-11T03:35:15.993Z,13.40
2018-06-11T03:37:44.960Z,13.50
2018-06-11T03:40:14.448Z,13.50
2018-06-11T03:42:43.421Z,13.60
2018-06-11T03:45:12.379Z,13.60
2018-06-11T03:47:41.259Z,13.70
2018-06-11T03:50:10.241Z,13.70
2018-06-11T03:52:39.162Z,13.70
2018-06-11T03:55:08.315Z,13.70
2018-06-11T03:57:37.251Z,13.80
2018-06-11T04:00:06.145Z,13.80
2018-06-11T04:02:35.025Z,13.80
2018-06-11T04:05:03.912Z,13.80
2018-06-11T04:07:32.859Z,13.80
2018-06-11T04:10:01.811Z,13.80
2018-06-11T04:12:31.427Z,13.80
2018-06-11T04:15:00.376Z,13.80
2018-06-11T04:17:29.289Z,13.80
2018-06-11T04:19:58.265Z,13.90
2018-06-11T04:22:27.176Z,13.90
2018-06-11T04:24:56.104Z,13.90
2018-06-11T04:27:25.098Z,14.00
2018-06-11T04:29:54.029Z,14.00
2018-06-11T04:32:24.006Z,14.00
2018-06-11T04:34:52.902Z,14.00
2018-06-11T04:37:21.847Z,14.00
2018-06-11T04:39:50.777Z,14.10
2018-06-11T04:42:19.655Z,14.00
2018-06-11T04:44:48.572Z,14.10
2018-06-11T04:47:17.419Z,14.10
2018-06-11T04:49:46.366Z,14.10
2018-06-11T04:52:15.285Z,14.20
2018-06-11T04:54:44.178Z,14.10
2018-06-11T04:57:13.084Z,14.10
2018-06-11T04:59:41.966Z,14.20
2018-06-11T05:02:10.901Z,14.20
2018-06-11T05:04:39.977Z,14.20
2018-06-11T05:07:08.887Z,14.30
2018-06-11T05:09:37.747Z,14.40
2018-06-11T05:12:06.713Z,14.50
2018-06-11T05:14:35.615Z,14.60
2018-06-11T05:17:04.526Z,14.60
2018-06-11T05:19:33.424Z,14.70
2018-06-11T05:24:31.044Z,14.80
2018-06-11T05:27:00.384Z,14.80
2018-06-11T05:29:28.973Z,14.80
2018-06-11T05:31:57.861Z,14.80
2018-06-11T05:34:26.795Z,14.90
2018-06-11T05:36:55.705Z,15.00
2018-06-11T05:39:24.610Z,15.00
2018-06-11T05:41:53.516Z,15.00
2018-06-11T05:44:22.414Z,15.20
2018-06-11T05:46:51.313Z,15.30
2018-06-11T05:49:20.163Z,15.30
2018-06-11T05:51:49.017Z,15.30
2018-06-11T05:54:18.027Z,15.30
2018-06-11T05:56:46.875Z,15.30
2018-06-11T05:59:15.734Z,15.50
2018-06-11T06:01:44.633Z,15.60
2018-06-11T06:04:13.499Z,15.60
2018-06-11T06:06:42.484Z,16.00
2018-06-11T06:09:11.360Z,16.20
2018-06-11T06:11:40.220Z,16.30
2018-06-11T06:14:09.099Z,16.60
2018-06-11T06:16:38.232Z,16.50
2018-06-11T06:19:07.261Z,16.70
2018-06-11T06:21:36.109Z,16.70
2018-06-11T06:24:04.961Z,16.80
2018-06-11T06:26:33.812Z,16.80
2018-06-11T06:29:02.904Z,16.90
2018-06-11T06:31:31.773Z,16.80
2018-06-11T06:34:00.619Z,17.00
2018-06-11T06:38:57.788Z,17.30
2018-06-11T06:41:26.743Z,17.40
2018-06-11T06:43:55.840Z,17.20
2018-06-11T06:46:24.716Z,17.40
2018-06-11T06:48:53.560Z,17.50
2018-06-11T06:51:22.474Z,17.60
2018-06-11T06:53:51.336Z,17.90
2018-06-11T06:56:20.293Z,18.20
2018-06-11T06:58:49.196Z,18.60
2018-06-11T07:01:18.140Z,19.00
2018-06-11T07:03:47.033Z,19.10
2018-06-11T07:06:15.921Z,19.30
2018-06-11T07:08:44.792Z,19.60
2018-06-11T07:11:13.658Z,19.70
2018-06-11T07:13:42.537Z,19.90
2018-06-11T07:16:11.720Z,19.90
2018-06-11T07:18:40.684Z,20.10
2018-06-11T07:21:09.590Z,20.10
2018-06-11T07:23:38.498Z,20.40
2018-06-11T07:26:07.353Z,20.60
2018-06-11T07:28:36.270Z,20.30
2018-06-11T07:31:05.132Z,20.60
2018-06-11T07:33:34.053Z,20.70
2018-06-11T07:36:03.005Z,21.10
2018-06-11T07:38:31.926Z,21.30
2018-06-11T07:41:00.828Z,21.60
2018-06-11T07:43:29.912Z,21.90
2018-06-11T07:45:58.795Z,22.60
2018-06-11T07:48:27.812Z,22.40
2018-06-11T07:50:56.684Z,23.20
2018-06-11T07:53:25.568Z,22.60
2018-06-11T07:55:55.416Z,23.90
2018-06-11T07:58:24.778Z,22.90
2018-06-11T08:00:53.689Z,23.00
2018-06-11T08:03:22.660Z,23.20
2018-06-11T08:05:53.473Z,23.20
2018-06-11T08:08:22.301Z,22.20
2018-06-11T08:10:52.028Z,22.10
2018-06-11T08:13:21.023Z,22.20
2018-06-11T08:15:49.876Z,24.90
2018-06-11T08:18:18.779Z,25.30
2018-06-11T08:20:47.697Z,25.60
2018-06-11T08:23:16.716Z,26.10
2018-06-11T08:25:46.132Z,26.20
2018-06-11T08:28:14.991Z,26.40
2018-06-11T08:30:44.864Z,26.90
2018-06-11T08:33:13.771Z,26.90
2018-06-11T08:35:42.656Z,26.90
2018-06-11T08:38:11.544Z,26.70
2018-06-11T08:40:40.488Z,26.40
2018-06-11T08:43:09.361Z,26.60
2018-06-11T08:45:38.536Z,25.90
2018-06-11T08:48:07.467Z,26.40
2018-06-11T08:50:36.397Z,26.40
2018-06-11T08:53:05.542Z,26.90
2018-06-11T08:55:34.438Z,27.10
2018-06-11T08:58:03.326Z,27.10
2018-06-11T09:00:32.523Z,27.60
2018-06-11T09:03:01.414Z,27.70
2018-06-11T09:05:30.314Z,27.50
2018-06-11T09:07:59.260Z,28.00
2018-06-11T09:10:28.233Z,27.70
2018-06-11T09:12:57.260Z,27.40
2018-06-11T09:15:27.347Z,25.60
2018-06-11T09:17:56.251Z,24.40
2018-06-11T09:20:25.290Z,23.80
2018-06-11T09:22:54.249Z,26.60
2018-06-11T09:25:23.137Z,27.80
2018-06-11T09:27:52.097Z,27.60
2018-06-11T09:30:21.097Z,26.30
2018-06-11T09:32:50.120Z,24.90
2018-06-11T09:35:19.035Z,24.60
2018-06-11T09:37:47.926Z,24.70
2018-06-11T09:40:16.859Z,26.60
2018-06-11T09:42:45.806Z,28.20
2018-06-11T09:45:14.661Z,28.60
2018-06-11T09:47:43.704Z,28.80
2018-06-11T09:50:12.621Z,28.70
2018-06-11T09:52:41.507Z,28.60
2018-06-11T09:55:11.581Z,29.40
2018-06-11T09:57:40.428Z,30.30
2018-06-11T10:00:13.526Z,29.70
2018-06-11T10:02:42.490Z,29.60
2018-06-11T10:07:40.205Z,28.90
2018-06-11T10:10:09.132Z,30.70
2018-06-11T10:12:37.997Z,31.60
2018-06-11T10:17:35.407Z,32.50
2018-06-11T10:20:04.681Z,32.30
2018-06-11T10:22:33.597Z,33.20
2018-06-11T10:25:02.552Z,33.30
2018-06-11T10:27:31.454Z,34.00
2018-06-11T10:30:00.362Z,34.30
2018-06-11T10:32:29.303Z,34.20
2018-06-11T10:34:58.207Z,34.10
2018-06-11T10:37:27.201Z,34.80
2018-06-11T10:39:56.237Z,33.80
2018-06-11T10:42:25.186Z,33.40
2018-06-11T10:44:54.087Z,33.60
2018-06-11T10:47:23.096Z,33.10
2018-06-11T10:49:52.102Z,33.60
2018-06-11T10:52:21.036Z,32.70
2018-06-11T10:54:49.945Z,30.00
2018-06-11T10:57:18.922Z,28.40
2018-06-11T10:59:47.940Z,28.20
2018-06-11T11:02:16.870Z,28.90
2018-06-11T11:04:45.757Z,28.80
2018-06-11T11:07:14.742Z,29.50
2018-06-11T11:09:43.798Z,31.10
2018-06-11T11:12:12.727Z,33.30
2018-06-11T11:14:41.678Z,34.40
2018-06-11T11:17:10.796Z,35.20
2018-06-11T11:19:39.759Z,34.50
2018-06-11T11:22:08.679Z,34.00
2018-06-11T11:27:06.174Z,34.60
2018-06-11T11:29:35.105Z,34.50
2018-06-11T11:32:04.087Z,34.20
2018-06-11T11:34:33.733Z,34.90
2018-06-11T11:37:02.709Z,33.90
2018-06-11T11:39:31.656Z,34.60
2018-06-11T11:42:00.560Z,35.40
2018-06-11T11:44:29.504Z,35.20
2018-06-11T11:46:58.378Z,35.60
2018-06-11T11:49:27.282Z,35.30
2018-06-11T11:51:56.233Z,35.50
2018-06-11T11:54:25.221Z,35.40
2018-06-11T11:56:54.205Z,34.50
2018-06-11T11:59:23.168Z,34.50
2018-06-11T12:01:52.122Z,31.40
2018-06-11T12:04:21.141Z,31.50
2018-06-11T12:06:50.173Z,31.60
2018-06-11T12:09:19.742Z,31.80
2018-06-11T12:11:48.644Z,33.20
2018-06-11T12:14:17.705Z,33.60
2018-06-11T12:16:46.699Z,33.20
2018-06-11T12:19:15.596Z,33.10
2018-06-11T12:21:44.700Z,32.30
2018-06-11T12:24:13.853Z,33.30
2018-06-11T12:26:42.704Z,33.30
2018-06-11T12:29:11.606Z,33.20
2018-06-11T12:31:40.518Z,33.30
2018-06-11T12:34:09.489Z,33.00
2018-06-11T12:36:38.435Z,33.80
2018-06-11T12:41:36.666Z,34.10
2018-06-11T12:44:05.664Z,34.00
2018-06-11T12:46:34.579Z,33.80
2018-06-11T12:49:04.050Z,33.60
2018-06-11T12:51:33.680Z,33.10
2018-06-11T12:54:02.651Z,33.10
2018-06-11T12:56:31.587Z,31.30
2018-06-11T12:59:00.589Z,31.90
2018-06-11T13:01:29.596Z,32.80
2018-06-11T13:03:58.789Z,32.40
2018-06-11T13:06:27.743Z,30.90
2018-06-11T13:08:56.632Z,28.90
2018-06-11T13:11:25.536Z,30.70
2018-06-11T13:13:54.585Z,31.10
2018-06-11T13:16:23.702Z,32.10
2018-06-11T13:18:52.588Z,30.80
2018-06-11T13:21:21.522Z,30.80
2018-06-11T13:23:50.487Z,30.60
2018-06-11T13:26:19.367Z,30.80
2018-06-11T13:28:48.265Z,30.10
2018-06-11T13:31:17.152Z,30.30
2018-06-11T13:33:46.069Z,30.30
2018-06-11T13:41:12.248Z,31.40
2018-06-11T13:43:41.287Z,31.30
2018-06-11T13:46:16.885Z,30.70
2018-06-11T13:48:45.893Z,30.70
2018-06-11T13:51:14.802Z,29.80
2018-06-11T13:53:43.755Z,29.90
2018-06-11T13:56:12.647Z,29.60
2018-06-11T13:58:41.531Z,29.80
2018-06-11T14:01:10.614Z,29.80
2018-06-11T14:03:39.643Z,29.40
2018-06-11T14:06:08.535Z,29.20
2018-06-11T14:08:37.445Z,29.30
2018-06-11T14:11:06.583Z,29.10
2018-06-11T14:13:35.494Z,29.20
2018-06-11T14:16:05.228Z,29.30
2018-06-11T14:18:34.292Z,28.90
2018-06-11T14:21:03.178Z,28.50
2018-06-11T14:23:32.103Z,28.40
2018-06-11T14:26:00.991Z,28.20
2018-06-11T14:28:29.895Z,27.50
2018-06-11T14:30:58.793Z,27.90
2018-06-11T14:33:27.743Z,27.80
2018-06-11T14:35:56.643Z,27.60
2018-06-11T14:38:25.562Z,27.50
2018-06-11T14:40:54.478Z,27.40
2018-06-11T14:43:23.359Z,27.00
2018-06-11T14:45:52.372Z,26.90
2018-06-11T14:48:21.281Z,26.80
2018-06-11T14:50:50.230Z,26.70
2018-06-11T14:53:19.154Z,26.50
2018-06-11T14:55:48.134Z,26.30
2018-06-11T14:58:17.033Z,26.10
2018-06-11T15:00:46.128Z,25.80
2018-06-11T15:03:15.069Z,25.90
2018-06-11T15:05:44.061Z,25.70
2018-06-11T15:08:13.067Z,25.50
2018-06-11T15:10:42.053Z,25.50
2018-06-11T15:13:10.963Z,25.40
2018-06-11T15:15:39.925Z,25.40
2018-06-11T15:18:08.882Z,25.30
2018-06-11T15:20:37.838Z,25.40
2018-06-11T15:23:06.736Z,25.20
2018-06-11T15:25:35.785Z,25.10
2018-06-11T15:28:04.694Z,25.20
2018-06-11T15:30:33.646Z,25.20
2018-06-11T15:33:02.615Z,25.10
2018-06-11T15:35:32.333Z,24.80
2018-06-11T15:38:01.284Z,25.20
2018-06-11T15:40:30.179Z,25.20
2018-06-11T15:42:59.049Z,25.30
2018-06-11T15:45:27.985Z,25.60
2018-06-11T15:47:57.560Z,25.60
2018-06-11T15:50:26.427Z,25.70
2018-06-11T15:52:55.332Z,25.50
2018-06-11T15:55:24.186Z,25.50
2018-06-11T15:57:53.192Z,25.60
2018-06-11T16:00:22.194Z,25.60
2018-06-11T16:02:51.170Z,25.80
2018-06-11T16:05:20.146Z,25.70
2018-06-11T16:07:49.256Z,25.60
2018-06-11T16:10:18.216Z,25.70
2018-06-11T16:12:47.105Z,25.70
2018-06-11T16:15:16.009Z,25.60
2018-06-11T16:17:45.214Z,25.50
2018-06-11T16:20:14.195Z,25.40
2018-06-11T16:22:43.195Z,25.30
2018-06-11T16:25:12.083Z,25.10
2018-06-11T16:27:41.080Z,24.90
2018-06-11T16:30:10.702Z,25.00
2018-06-11T16:32:39.552Z,25.00
2018-06-11T16:35:08.661Z,24.90
2018-06-11T16:37:37.558Z,24.90
2018-06-11T16:40:06.527Z,24.80
2018-06-11T16:42:35.490Z,24.80
2018-06-11T16:45:04.324Z,24.60
2018-06-11T16:47:33.204Z,24.30
2018-06-11T16:50:02.138Z,24.50
2018-06-11T16:52:31.249Z,24.50
2018-06-11T16:55:00.271Z,24.60
2018-06-11T16:57:29.162Z,24.50
2018-06-11T16:59:58.079Z,24.30
2018-06-11T17:02:27.092Z,24.10
2018-06-11T17:04:56.689Z,24.00
2018-06-11T17:07:25.629Z,24.10
2018-06-11T17:09:54.562Z,23.80
2018-06-11T17:14:52.038Z,23.70
2018-06-11T17:17:21.252Z,23.80
2018-06-11T17:19:50.158Z,24.00
2018-06-11T17:22:19.049Z,23.90
2018-06-11T17:24:47.967Z,23.80
2018-06-11T17:27:16.885Z,23.90
2018-06-11T17:29:45.839Z,23.70
2018-06-11T17:32:14.780Z,23.60
2018-06-11T17:34:43.738Z,23.60
2018-06-11T17:37:12.791Z,23.50
2018-06-11T17:39:41.731Z,24.10
2018-06-11T17:42:10.649Z,23.70
2018-06-11T17:44:40.740Z,23.40
2018-06-11T17:47:09.912Z,23.30
2018-06-11T17:49:38.934Z,23.20
2018-06-11T17:54:36.635Z,23.10
2018-06-11T17:57:05.840Z,22.90
2018-06-11T17:59:34.794Z,22.90
2018-06-11T18:02:03.736Z,22.90
2018-06-11T18:04:32.611Z,23.00
2018-06-11T18:07:01.514Z,22.70
2018-06-11T18:09:30.438Z,22.60
2018-06-11T18:11:59.352Z,23.00
2018-06-11T18:14:28.474Z,23.80
2018-06-11T18:16:57.644Z,23.50
2018-06-11T18:19:26.843Z,23.00
2018-06-11T18:21:55.732Z,22.60
2018-06-11T18:24:24.658Z,22.50
2018-06-11T18:26:53.556Z,22.50
2018-06-11T18:29:22.467Z,22.40
2018-06-11T18:31:51.417Z,22.30
2018-06-11T18:34:20.351Z,22.20
2018-06-11T18:36:49.821Z,22.10
2018-06-11T18:39:18.804Z,22.00
2018-06-11T18:41:47.776Z,21.80
2018-06-11T18:44:16.873Z,21.80
2018-06-11T18:46:45.767Z,21.70
2018-06-11T18:49:14.876Z,21.70
2018-06-11T18:51:43.853Z,21.70
2018-06-11T18:54:12.772Z,21.50
2018-06-11T18:56:41.670Z,21.40
2018-06-11T18:59:10.600Z,21.40
2018-06-11T19:01:39.473Z,21.50
2018-06-11T19:04:08.390Z,21.20
2018-06-11T19:06:37.383Z,21.20
2018-06-11T19:09:07.975Z,21.10
2018-06-11T19:11:36.899Z,21.10
2018-06-11T19:14:05.863Z,21.00
2018-06-11T19:16:34.767Z,21.00
2018-06-11T19:19:03.749Z,20.90
2018-06-11T19:21:32.823Z,20.80
2018-06-11T19:24:01.767Z,20.70
2018-06-11T19:26:30.671Z,20.60
2018-06-11T19:28:59.564Z,20.60
2018-06-11T19:31:28.510Z,20.40
2018-06-11T19:33:57.475Z,20.90
2018-06-11T19:36:26.343Z,20.40
2018-06-11T19:38:55.358Z,20.30
2018-06-11T19:41:24.324Z,20.30
2018-06-11T19:43:53.226Z,20.00
2018-06-11T19:46:22.194Z,19.90
2018-06-11T19:48:51.134Z,19.90
2018-06-11T19:51:20.108Z,19.90
2018-06-11T19:53:49.018Z,19.80
2018-06-11T19:56:17.955Z,19.70
2018-06-11T20:01:15.939Z,19.70
2018-06-11T20:03:45.407Z,19.50
2018-06-11T20:06:14.861Z,19.30
2018-06-11T20:08:43.895Z,19.30
2018-06-11T20:11:12.927Z,19.30
2018-06-11T20:13:41.955Z,19.20
2018-06-11T20:16:10.839Z,19.00
2018-06-11T20:18:39.775Z,19.10
2018-06-11T20:21:08.625Z,19.10
2018-06-11T20:23:37.477Z,19.00
2018-06-11T20:28:35.053Z,18.80
2018-06-11T20:31:04.048Z,18.70
2018-06-11T20:33:32.996Z,18.50
2018-06-11T20:36:01.859Z,18.50
2018-06-11T20:38:30.511Z,18.40
2018-06-11T20:40:59.391Z,18.40
2018-06-11T20:43:28.351Z,18.30
2018-06-11T20:46:00.172Z,18.20
2018-06-11T20:48:29.092Z,18.10
2018-06-11T20:50:58.349Z,18.00
2018-06-11T20:53:27.206Z,19.00
2018-06-11T20:55:56.078Z,18.40
2018-06-11T20:58:25.249Z,18.10
2018-06-11T21:00:54.240Z,18.00
2018-06-11T21:03:23.132Z,17.80
2018-06-11T21:05:51.986Z,17.70
2018-06-11T21:08:21.115Z,17.70
2018-06-11T21:10:50.060Z,17.80
2018-06-11T21:15:47.503Z,17.60
2018-06-11T21:20:45.006Z,17.30
2018-06-11T21:23:13.982Z,17.30
2018-06-11T21:28:12.150Z,17.20
2018-06-11T21:30:41.646Z,17.20
2018-06-11T21:33:10.790Z,17.20
2018-06-11T21:35:39.863Z,17.00
2018-06-11T21:40:37.442Z,17.10
2018-06-11T21:43:06.441Z,17.00
2018-06-11T21:45:35.466Z,16.80
2018-06-11T21:48:04.508Z,16.80
2018-06-11T21:53:02.044Z,16.70
2018-06-11T21:55:30.932Z,16.60
2018-06-11T21:57:59.715Z,16.60
2018-06-11T22:00:28.849Z,16.60
2018-06-11T22:02:57.715Z,16.50
2018-06-11T22:05:26.821Z,16.50
2018-06-11T22:07:55.766Z,16.50
2018-06-11T22:10:24.807Z,16.50
2018-06-11T22:12:53.719Z,16.40
2018-06-11T22:15:22.718Z,16.40
2018-06-11T22:17:51.954Z,16.50
2018-06-11T22:20:21.112Z,16.40
2018-06-11T22:22:50.073Z,16.40
2018-06-11T22:27:47.753Z,16.30
2018-06-11T22:30:17.030Z,16.20
2018-06-11T22:32:45.940Z,16.40
2018-06-11T22:35:15.341Z,16.30
2018-06-11T22:37:45.180Z,16.30
2018-06-11T22:40:14.122Z,16.20
2018-06-11T22:42:43.051Z,16.20
2018-06-11T22:45:12.908Z,16.20
2018-06-11T22:47:41.764Z,16.10
2018-06-11T22:50:11.397Z,16.10
2018-06-11T22:52:40.248Z,16.10
2018-06-11T22:55:09.210Z,16.10
2018-06-11T22:57:38.172Z,16.10
2018-06-11T23:00:07.045Z,16.10
2018-06-11T23:02:35.911Z,16.10
2018-06-11T23:05:04.838Z,16.10
2018-06-11T23:07:33.690Z,16.00
2018-06-11T23:10:02.846Z,16.00
2018-06-11T23:12:31.814Z,16.00
2018-06-11T23:15:00.731Z,16.00
2018-06-11T23:17:29.606Z,15.90
2018-06-11T23:19:58.897Z,15.90
2018-06-11T23:22:27.838Z,15.80
2018-06-11T23:24:56.759Z,15.80
2018-06-11T23:27:25.871Z,15.80
2018-06-11T23:29:54.726Z,15.80
2018-06-11T23:32:23.597Z,15.80
2018-06-11T23:34:55.979Z,15.80
2018-06-11T23:37:25.138Z,15.70
2018-06-11T23:39:53.961Z,15.80
2018-06-11T23:42:22.803Z,15.70
2018-06-11T23:44:51.654Z,15.70
2018-06-11T23:47:20.910Z,15.60
2018-06-11T23:49:49.809Z,15.70
2018-06-11T23:52:18.770Z,15.70
2018-06-11T23:54:48.796Z,15.70
2018-06-11T23:57:17.825Z,15.80
2018-06-11T23:59:46.865Z,15.70
